Time;durP1;ratioP1;P1;durP2;ratioP2;P2;SDS_P1;SDS_P2;PMS_P1;PMS_P2;Temp;Humidity;BMP_temperature;BMP_pressure;BME280_temperature;BME280_humidity;BME280_pressure;Samples;Min_cycle;Max_cycle;Signal;HPM_P1;HPM_P2
2023/05/19 00:03:52;;;;;;;;;;;14.10;84.70;;;;;;4844277;29;19924;-95
2023/05/19 00:06:51;;;;;;;;;;;13.90;84.50;;;;;;4831811;29;19988;-96
2023/05/19 00:09:50;;;;;;;;;;;13.80;84.50;;;;;;4828601;29;19962;-95
2023/05/19 00:12:36;;;;;;;;;;;13.80;84.50;;;;;;4811156;29;19913;-96
2023/05/19 00:15:42;;;;;;;;;;;13.80;84.50;;;;;;4812271;29;20249;-96
2023/05/19 00:18:36;;;;;;;;;;;13.80;84.50;;;;;;4826701;29;19920;-96
2023/05/19 00:21:22;;;;;;;;;;;13.80;84.50;;;;;;4826614;29;19913;-95
2023/05/19 00:24:10;;;;;;;;;;;13.80;84.50;;;;;;4831983;29;19913;-96
2023/05/19 00:27:01;;;;;;;;;;;13.80;84.50;;;;;;4830511;29;19913;-96
2023/05/19 00:29:53;;;;;;;;;;;13.80;84.60;;;;;;4814736;29;20128;-96
2023/05/19 00:32:42;;;;;;;;;;;13.80;84.50;;;;;;4821151;29;19913;-96
2023/05/19 00:35:31;;;;;;;;;;;13.80;84.50;;;;;;4832419;29;19992;-96
2023/05/19 00:38:26;;;;;;;;;;;13.80;84.50;;;;;;4832321;29;19980;-95
2023/05/19 00:41:19;;;;;;;;;;;13.80;84.50;;;;;;4907509;29;19918;-96
2023/05/19 00:44:07;;;;;;;;;;;13.80;84.50;;;;;;4876752;29;19912;-96
2023/05/19 00:47:02;;;;;;;;;;;13.80;84.50;;;;;;4923550;28;19977;-96
2023/05/19 00:50:05;;;;;;;;;;;;;;;;;;;;;
2023/05/19 00:53:06;;;;;;;;;;;13.80;84.50;;;;;;4981572;28;20359;-96
2023/05/19 00:56:14;;;;;;;;;;;13.70;84.50;;;;;;5000622;28;19968;-96
2023/05/19 00:59:06;;;;;;;;;;;13.80;84.50;;;;;;4993899;28;19910;-96
2023/05/19 01:01:58;;;;;;;;;;;13.70;84.50;;;;;;5025502;28;19916;-96
2023/05/19 01:04:58;;;;;;;;;;;13.80;84.50;;;;;;5047915;28;20103;-96
2023/05/19 01:08:02;;;;;;;;;;;;;;;;;;;;;
2023/05/19 01:11:05;;;;;;;;;;;;;;;;;;;;;
2023/05/19 01:14:06;;;;;;;;;;;13.70;84.50;;;;;;5041320;28;19931;-96
2023/05/19 01:16:59;;;;;;;;;;;13.70;84.50;;;;;;5042617;28;20080;-96
2023/05/19 01:19:50;;;;;;;;;;;13.80;84.60;;;;;;5042972;28;19916;-96
2023/05/19 01:22:35;;;;;;;;;;;13.70;84.60;;;;;;5041284;28;20038;-95
2023/05/19 01:25:35;;;;;;;;;;;;;;;;;;;;;
2023/05/19 01:28:29;;;;;;;;;;;13.70;84.50;;;;;;5061920;28;19962;-96
2023/05/19 01:34:23;;;;;;;;;;;13.70;84.60;;;;;;5052653;28;20408;-96
2023/05/19 01:40:38;;;;;;;;;;;13.70;84.70;;;;;;5061886;28;19951;-95
2023/05/19 01:43:37;;;;;;;;;;;;;;;;;;;;;
2023/05/19 01:46:40;;;;;;;;;;;13.70;84.60;;;;;;5057265;28;19913;-95
2023/05/19 01:49:35;;;;;;;;;;;13.70;84.60;;;;;;5063554;28;19947;-96
2023/05/19 01:52:32;;;;;;;;;;;13.70;84.60;;;;;;5121720;28;19967;-96
2023/05/19 01:55:35;;;;;;;;;;;13.70;84.70;;;;;;5120710;28;20459;-95
2023/05/19 01:58:08;;;;;;;;;;;13.70;84.70;;;;;;5115331;28;20378;-96
2023/05/19 02:01:13;;;;;;;;;;;13.70;84.60;;;;;;5112263;27;19931;-96
2023/05/19 02:04:00;;;;;;;;;;;13.80;84.70;;;;;;5096373;27;19907;-96
2023/05/19 02:07:02;;;;;;;;;;;13.70;84.70;;;;;;5111465;28;20002;-95
2023/05/19 02:09:58;;;;;;;;;;;13.70;84.60;;;;;;5106800;28;19939;-96
2023/05/19 02:12:34;;;;;;;;;;;13.70;84.70;;;;;;5069486;28;19957;-96
2023/05/19 02:15:11;;;;;;;;;;;13.60;84.70;;;;;;5121309;28;19912;-96
2023/05/19 02:18:10;;;;;;;;;;;13.60;84.70;;;;;;5102227;28;19968;-96
2023/05/19 02:21:15;;;;;;;;;;;13.70;84.80;;;;;;5113329;28;19950;-96
2023/05/19 02:27:25;;;;;;;;;;;;;;;;;;;;;
2023/05/19 02:30:23;;;;;;;;;;;13.60;84.80;;;;;;5039612;28;19936;-95
2023/05/19 02:33:13;;;;;;;;;;;13.60;84.80;;;;;;5047184;28;19909;-96
2023/05/19 02:36:08;;;;;;;;;;;13.70;85.00;;;;;;4992156;28;19924;-96
2023/05/19 02:38:59;;;;;;;;;;;13.60;84.80;;;;;;5001436;28;19964;-96
2023/05/19 02:41:48;;;;;;;;;;;13.60;84.90;;;;;;4993608;28;19945;-96
2023/05/19 02:44:21;;;;;;;;;;;13.60;84.90;;;;;;4992277;28;19977;-96
2023/05/19 02:47:19;;;;;;;;;;;13.50;84.80;;;;;;5015201;28;20016;-96
2023/05/19 02:49:52;;;;;;;;;;;13.60;84.90;;;;;;5000634;28;19963;-96
2023/05/19 02:52:41;;;;;;;;;;;13.60;85.00;;;;;;5004947;28;19982;-96
2023/05/19 02:55:28;;;;;;;;;;;13.60;85.00;;;;;;4973965;28;19914;-96
2023/05/19 02:58:43;;;;;;;;;;;13.50;84.80;;;;;;5012147;28;20021;-96
2023/05/19 03:05:06;;;;;;;;;;;13.60;85.00;;;;;;5003013;28;19910;-96
2023/05/19 03:07:55;;;;;;;;;;;13.50;85.30;;;;;;5019685;28;19995;-96
2023/05/19 03:14:01;;;;;;;;;;;13.50;85.00;;;;;;4985107;28;19914;-96
2023/05/19 03:19:58;;;;;;;;;;;13.60;85.10;;;;;;5029379;28;20385;-96
2023/05/19 03:22:43;;;;;;;;;;;13.50;85.40;;;;;;5037078;28;20001;-95
2023/05/19 03:25:49;;;;;;;;;;;;;;;;;;;;;
2023/05/19 03:28:39;;;;;;;;;;;13.50;85.20;;;;;;5031117;28;19920;-95
2023/05/19 03:31:29;;;;;;;;;;;13.50;85.10;;;;;;5036885;28;19909;-95
2023/05/19 03:34:21;;;;;;;;;;;13.50;85.20;;;;;;5028951;28;19917;-95
2023/05/19 03:37:13;;;;;;;;;;;13.60;85.20;;;;;;5032151;28;19977;-96
2023/05/19 03:39:40;;;;;;;;;;;13.50;85.20;;;;;;5033982;28;19909;-95
2023/05/19 03:45:44;;;;;;;;;;;13.50;85.30;;;;;;5031763;28;20032;-95
2023/05/19 03:48:40;;;;;;;;;;;13.50;85.20;;;;;;5014121;28;20008;-96
2023/05/19 03:51:37;;;;;;;;;;;13.50;85.20;;;;;;5026055;28;20058;-95
2023/05/19 03:54:26;;;;;;;;;;;13.50;85.20;;;;;;5010277;28;19909;-95
2023/05/19 04:00:42;;;;;;;;;;;13.50;85.30;;;;;;5034628;28;19944;-96
2023/05/19 04:03:36;;;;;;;;;;;13.50;85.40;;;;;;5016337;28;19908;-95
2023/05/19 04:06:30;;;;;;;;;;;13.50;85.40;;;;;;5010927;28;19910;-95
2023/05/19 04:09:16;;;;;;;;;;;13.50;85.40;;;;;;5016415;28;19909;-95
2023/05/19 04:12:02;;;;;;;;;;;13.50;85.40;;;;;;5030714;28;19910;-96
2023/05/19 04:17:41;;;;;;;;;;;13.50;85.50;;;;;;5017917;28;19925;-96
2023/05/19 04:20:52;;;;;;;;;;;;;;;;;;;;;
2023/05/19 04:23:49;;;;;;;;;;;13.50;86.30;;;;;;5114607;28;19941;-94
2023/05/19 04:26:40;;;;;;;;;;;13.50;85.50;;;;;;5110612;28;19947;-95
2023/05/19 04:29:39;;;;;;;;;;;;;;;;;;;;;
2023/05/19 04:32:40;;;;;;;;;;;13.50;85.60;;;;;;5098650;28;19982;-95
2023/05/19 04:35:31;;;;;;;;;;;13.50;85.70;;;;;;5111877;28;20412;-96
2023/05/19 04:38:18;;;;;;;;;;;13.50;85.60;;;;;;5099677;28;19907;-95
2023/05/19 04:41:18;;;;;;;;;;;13.60;85.80;;;;;;5113617;28;19908;-96
2023/05/19 04:44:07;;;;;;;;;;;13.40;85.70;;;;;;5058730;28;19939;-96
2023/05/19 04:47:06;;;;;;;;;;;;;;;;;;;;;
2023/05/19 04:50:04;;;;;;;;;;;13.50;85.70;;;;;;5055146;28;19983;-96
2023/05/19 04:56:08;;;;;;;;;;;13.60;85.80;;;;;;4961577;28;19941;-96
2023/05/19 05:02:08;;;;;;;;;;;13.50;85.60;;;;;;4945675;28;19953;-96
2023/05/19 05:05:12;;;;;;;;;;;13.50;85.60;;;;;;4955657;28;19911;-96
2023/05/19 05:08:29;;;;;;;;;;;13.50;85.60;;;;;;4953708;28;19918;-96
2023/05/19 05:11:40;;;;;;;;;;;13.50;85.60;;;;;;4956315;28;19915;-96
2023/05/19 05:14:28;;;;;;;;;;;13.50;85.60;;;;;;4976572;28;19997;-96
2023/05/19 05:17:30;;;;;;;;;;;;;;;;;;;;;
2023/05/19 05:20:45;;;;;;;;;;;13.50;85.60;;;;;;4932160;29;20010;-96
2023/05/19 05:23:30;;;;;;;;;;;13.60;85.70;;;;;;4914742;29;19910;-96
2023/05/19 05:26:28;;;;;;;;;;;13.50;85.60;;;;;;4913070;29;19923;-95
2023/05/19 05:29:05;;;;;;;;;;;13.60;85.60;;;;;;4899324;29;19926;-96
2023/05/19 05:31:53;;;;;;;;;;;13.60;85.70;;;;;;4929934;28;20045;-96
2023/05/19 05:34:39;;;;;;;;;;;13.60;85.70;;;;;;4994479;28;19916;-94
2023/05/19 05:38:10;;;;;;;;;;;13.60;85.60;;;;;;5016103;28;19960;-96
2023/05/19 05:41:13;;;;;;;;;;;13.70;85.70;;;;;;5027870;28;19975;-96
2023/05/19 05:47:15;;;;;;;;;;;13.60;85.50;;;;;;4992092;28;19981;-96
2023/05/19 05:50:18;;;;;;;;;;;13.60;85.50;;;;;;5021797;28;19909;-94
2023/05/19 05:53:29;;;;;;;;;;;13.60;85.50;;;;;;5032977;28;20594;-96
2023/05/19 05:56:39;;;;;;;;;;;13.60;85.50;;;;;;5117757;28;19912;-96
2023/05/19 05:59:49;;;;;;;;;;;13.60;85.50;;;;;;5118090;28;19919;-96
2023/05/19 06:02:55;;;;;;;;;;;13.70;85.50;;;;;;5063589;28;19912;-96
2023/05/19 06:05:48;;;;;;;;;;;13.60;85.50;;;;;;4983407;28;19921;-96
2023/05/19 06:09:09;;;;;;;;;;;13.60;85.50;;;;;;5001821;28;19990;-95
2023/05/19 06:18:24;;;;;;;;;;;13.60;85.50;;;;;;4927351;29;19915;-96
2023/05/19 06:21:33;;;;;;;;;;;13.70;85.60;;;;;;4880366;29;19916;-96
2023/05/19 06:24:50;;;;;;;;;;;13.60;85.50;;;;;;4871231;29;19912;-96
2023/05/19 06:31:26;;;;;;;;;;;13.60;85.50;;;;;;4854497;29;20532;-96
2023/05/19 06:34:19;;;;;;;;;;;13.70;85.60;;;;;;4839116;29;19919;-96
2023/05/19 06:37:47;;;;;;;;;;;;;;;;;;;;;
2023/05/19 06:40:22;;;;;;;;;;;13.70;85.70;;;;;;4873550;29;19999;-96
2023/05/19 06:46:25;;;;;;;;;;;13.70;85.70;;;;;;4903652;29;19911;-96
2023/05/19 06:49:49;;;;;;;;;;;;;;;;;;;;;
2023/05/19 06:52:45;;;;;;;;;;;13.70;85.70;;;;;;4893343;29;19911;-96
2023/05/19 06:55:31;;;;;;;;;;;13.70;85.70;;;;;;4956927;28;19941;-96
2023/05/19 06:59:10;;;;;;;;;;;;;;;;;;;;;
2023/05/19 07:02:08;;;;;;;;;;;13.70;85.70;;;;;;4965167;28;19914;-96
2023/05/19 07:05:36;;;;;;;;;;;;;;;;;;;;;
2023/05/19 07:08:35;;;;;;;;;;;13.70;85.70;;;;;;5011677;28;19916;-96
2023/05/19 07:11:47;;;;;;;;;;;13.70;85.80;;;;;;5021653;28;19913;-96
2023/05/19 07:14:51;;;;;;;;;;;13.70;85.80;;;;;;5030233;28;19917;-95
2023/05/19 07:17:49;;;;;;;;;;;13.70;85.80;;;;;;5032199;28;20282;-96
2023/05/19 07:20:18;;;;;;;;;;;13.80;85.80;;;;;;5083819;28;20167;-94
2023/05/19 07:23:20;;;;;;;;;;;13.80;85.80;;;;;;5104771;28;19912;-96
2023/05/19 07:26:06;;;;;;;;;;;13.70;85.70;;;;;;5111256;28;19938;-96
2023/05/19 07:28:42;;;;;;;;;;;13.80;85.80;;;;;;5115269;28;19912;-96
2023/05/19 07:31:33;;;;;;;;;;;13.80;85.90;;;;;;5101033;28;19912;-96
2023/05/19 07:47:56;;;;;;;;;;;13.90;85.90;;;;;;5292332;22;19925;-96
2023/05/19 07:50:57;;;;;;;;;;;13.90;85.90;;;;;;5037038;28;19917;-96
2023/05/19 07:53:43;;;;;;;;;;;13.90;85.80;;;;;;5015533;28;19937;-96
2023/05/19 07:56:28;;;;;;;;;;;14.30;86.10;;;;;;5024553;28;19917;-95
2023/05/19 07:59:37;;;;;;;;;;;14.00;85.80;;;;;;5026122;28;19996;-96
2023/05/19 08:02:22;;;;;;;;;;;14.00;85.80;;;;;;5022853;28;19909;-96
2023/05/19 08:04:55;;;;;;;;;;;14.00;85.80;;;;;;5038588;28;19980;-96
2023/05/19 08:07:44;;;;;;;;;;;14.00;85.80;;;;;;5007426;28;20392;-96
2023/05/19 08:10:35;;;;;;;;;;;14.00;85.70;;;;;;5049801;28;19893;-96
2023/05/19 08:18:06;;;;;;;;;;;14.10;85.60;;;;;;5063630;28;19936;-96
2023/05/19 08:20:35;;;;;;;;;;;14.10;85.60;;;;;;5047649;28;19909;-96
2023/05/19 08:23:11;;;;;;;;;;;14.10;85.60;;;;;;5044654;28;19909;-96
2023/05/19 08:26:02;;;;;;;;;;;14.10;85.50;;;;;;5028194;28;19913;-96
2023/05/19 08:29:13;;;;;;;;;;;14.10;85.50;;;;;;5059401;28;19915;-96
2023/05/19 08:32:07;;;;;;;;;;;14.10;85.40;;;;;;5009944;28;19910;-96
2023/05/19 08:35:03;;;;;;;;;;;14.20;85.40;;;;;;5026155;28;20012;-96
2023/05/19 08:38:06;;;;;;;;;;;14.20;85.50;;;;;;5037437;28;19901;-96
2023/05/19 08:44:09;;;;;;;;;;;14.20;85.30;;;;;;5011078;28;19932;-96
2023/05/19 08:47:12;;;;;;;;;;;14.30;85.40;;;;;;4987226;28;20401;-96
2023/05/19 08:49:50;;;;;;;;;;;14.10;85.20;;;;;;5024274;28;19910;-96
2023/05/19 08:59:02;;;;;;;;;;;;;;;;;;;;;
2023/05/19 09:05:17;;;;;;;;;;;14.20;85.10;;;;;;4938569;29;19996;-96
2023/05/19 09:27:32;;;;;;;;;;;14.20;85.00;;;;;;4948148;29;19950;-92
2023/05/19 09:30:35;;;;;;;;;;;14.20;85.00;;;;;;4967621;28;19956;-96
2023/05/19 10:16:21;;;;;;;;;;;14.30;84.30;;;;;;5048083;28;19928;-96
2023/05/19 10:19:10;;;;;;;;;;;14.30;84.20;;;;;;5040464;28;19955;-96
2023/05/19 10:21:57;;;;;;;;;;;14.30;84.20;;;;;;5037980;28;19913;-96
2023/05/19 10:24:42;;;;;;;;;;;14.30;84.10;;;;;;5042921;28;19909;-96
2023/05/19 10:27:33;;;;;;;;;;;14.30;84.10;;;;;;5052612;28;19914;-96
2023/05/19 10:30:29;;;;;;;;;;;14.30;84.10;;;;;;5052402;28;19953;-96
2023/05/19 10:36:12;;;;;;;;;;;14.40;84.10;;;;;;5029910;28;20591;-96
2023/05/19 10:39:20;;;;;;;;;;;14.30;83.90;;;;;;5063150;28;19916;-95
2023/05/19 10:42:20;;;;;;;;;;;14.40;83.80;;;;;;5029299;28;20372;-96
2023/05/19 10:45:45;;;;;;;;;;;14.40;83.70;;;;;;5063363;28;19928;-96
2023/05/19 10:48:38;;;;;;;;;;;14.40;83.70;;;;;;5033930;28;19952;-96
2023/05/19 10:58:15;;;;;;;;;;;14.40;83.70;;;;;;4960020;29;19911;-96
2023/05/19 11:01:17;;;;;;;;;;;14.40;83.60;;;;;;4965003;29;19946;-96
2023/05/19 11:04:33;;;;;;;;;;;14.40;83.70;;;;;;4959841;29;20398;-96
2023/05/19 11:10:30;;;;;;;;;;;14.40;83.50;;;;;;4919896;29;19918;-96
2023/05/19 11:13:18;;;;;;;;;;;14.40;83.40;;;;;;4905589;29;21010;-96
2023/05/19 11:16:04;;;;;;;;;;;14.40;83.50;;;;;;4909779;29;19923;-96
2023/05/19 11:19:11;;;;;;;;;;;14.50;83.50;;;;;;4917343;29;19896;-96
2023/05/19 11:22:07;;;;;;;;;;;14.40;83.30;;;;;;4919736;29;19911;-96
2023/05/19 11:24:49;;;;;;;;;;;14.50;83.50;;;;;;4928615;29;19911;-96
2023/05/19 11:27:51;;;;;;;;;;;14.40;83.30;;;;;;4928645;29;19919;-96
2023/05/19 11:30:38;;;;;;;;;;;14.40;83.30;;;;;;4915944;29;19915;-96
2023/05/19 11:34:01;;;;;;;;;;;14.50;83.40;;;;;;4920332;29;19911;-96
2023/05/19 11:36:31;;;;;;;;;;;14.50;83.40;;;;;;4915535;29;19915;-96
2023/05/19 11:39:17;;;;;;;;;;;14.50;83.50;;;;;;4903604;29;19943;-96
2023/05/19 11:42:15;;;;;;;;;;;14.40;83.50;;;;;;4925729;29;20048;-96
2023/05/19 11:45:05;;;;;;;;;;;14.50;84.30;;;;;;4961412;28;19977;-96
2023/05/19 11:48:10;;;;;;;;;;;14.50;83.70;;;;;;5024574;28;19909;-96
2023/05/19 11:51:18;;;;;;;;;;;14.50;83.70;;;;;;5033023;28;19909;-96
2023/05/19 11:54:06;;;;;;;;;;;14.40;83.50;;;;;;5000319;28;19909;-96
2023/05/19 11:56:54;;;;;;;;;;;14.40;83.60;;;;;;5032181;28;19921;-96
2023/05/19 11:59:44;;;;;;;;;;;14.40;83.60;;;;;;5015449;28;19910;-96
2023/05/19 12:02:15;;;;;;;;;;;14.40;83.70;;;;;;4995616;28;19917;-96
2023/05/19 12:05:02;;;;;;;;;;;14.50;83.80;;;;;;5017449;28;19940;-96
2023/05/19 12:08:02;;;;;;;;;;;14.40;83.80;;;;;;5035552;28;19909;-96
2023/05/19 12:10:55;;;;;;;;;;;14.40;83.80;;;;;;5044545;28;19977;-95
2023/05/19 12:13:27;;;;;;;;;;;14.40;83.80;;;;;;5040356;28;19913;-96
2023/05/19 12:16:15;;;;;;;;;;;14.40;83.80;;;;;;5017738;28;19921;-96
2023/05/19 12:19:08;;;;;;;;;;;14.40;83.90;;;;;;5046393;28;19956;-95
2023/05/19 12:22:13;;;;;;;;;;;14.40;83.80;;;;;;5037197;28;19976;-94
2023/05/19 12:25:08;;;;;;;;;;;14.40;83.80;;;;;;5039704;28;19909;-95
2023/05/19 12:27:55;;;;;;;;;;;14.40;83.90;;;;;;5044417;28;19909;-95
2023/05/19 12:30:40;;;;;;;;;;;14.40;83.90;;;;;;5030913;28;19913;-96
2023/05/19 12:33:34;;;;;;;;;;;14.40;83.90;;;;;;5033864;28;19970;-96
2023/05/19 12:36:24;;;;;;;;;;;14.40;83.90;;;;;;5050195;28;20028;-96
2023/05/19 12:39:13;;;;;;;;;;;14.40;83.90;;;;;;5024970;28;19931;-96
2023/05/19 12:41:47;;;;;;;;;;;14.40;83.90;;;;;;5052689;28;20031;-95
2023/05/19 12:44:56;;;;;;;;;;;14.40;84.00;;;;;;5009312;28;19920;-96
2023/05/19 12:47:32;;;;;;;;;;;14.40;84.00;;;;;;5048851;28;19977;-95
2023/05/19 12:50:23;;;;;;;;;;;14.40;84.10;;;;;;5035463;28;19929;-96
2023/05/19 12:52:50;;;;;;;;;;;14.40;84.20;;;;;;5044613;28;19913;-96
2023/05/19 12:55:40;;;;;;;;;;;14.40;84.20;;;;;;5032013;28;20007;-96
2023/05/19 12:58:10;;;;;;;;;;;14.40;84.20;;;;;;5044246;28;20255;-95
2023/05/19 13:00:59;;;;;;;;;;;14.40;84.20;;;;;;5020047;28;19998;-95
2023/05/19 13:03:47;;;;;;;;;;;14.40;84.20;;;;;;5049929;28;19909;-94
2023/05/19 13:06:31;;;;;;;;;;;14.40;84.20;;;;;;5031024;28;19913;-94
2023/05/19 13:09:20;;;;;;;;;;;14.40;84.30;;;;;;5030954;28;19913;-96
2023/05/19 13:12:06;;;;;;;;;;;14.40;84.20;;;;;;5046420;28;19991;-96
2023/05/19 13:18:42;;;;;;;;;;;;;;;;;;;;;
2023/05/19 13:25:17;;;;;;;;;;;14.40;84.30;;;;;;5037604;28;19968;-96
2023/05/19 13:28:09;;;;;;;;;;;14.40;84.30;;;;;;4996711;28;20165;-96
2023/05/19 13:30:57;;;;;;;;;;;14.40;84.30;;;;;;4983616;28;19910;-96
2023/05/19 13:33:45;;;;;;;;;;;14.40;84.30;;;;;;4981071;28;19910;-96
2023/05/19 13:36:38;;;;;;;;;;;14.50;84.40;;;;;;5004749;28;19917;-96
2023/05/19 13:39:33;;;;;;;;;;;14.40;84.30;;;;;;4987682;28;19918;-96
2023/05/19 13:42:43;;;;;;;;;;;;;;;;;;;;;
2023/05/19 13:45:30;;;;;;;;;;;14.40;84.50;;;;;;4996811;28;19993;-96
2023/05/19 13:48:19;;;;;;;;;;;14.40;84.50;;;;;;4998853;28;19913;-96
2023/05/19 13:51:05;;;;;;;;;;;14.40;84.50;;;;;;4977935;28;19910;-96
2023/05/19 13:53:47;;;;;;;;;;;14.20;84.40;;;;;;4983300;28;19911;-96
2023/05/19 13:56:34;;;;;;;;;;;14.40;84.50;;;;;;4975857;28;19921;-96
2023/05/19 13:59:22;;;;;;;;;;;14.40;84.60;;;;;;5028075;28;19897;-96
2023/05/19 14:02:19;;;;;;;;;;;14.30;84.60;;;;;;5056589;28;19909;-96
2023/05/19 14:05:05;;;;;;;;;;;14.40;84.70;;;;;;5031716;28;19941;-96
2023/05/19 14:07:52;;;;;;;;;;;14.40;84.70;;;;;;5051996;28;19932;-96
2023/05/19 14:10:40;;;;;;;;;;;14.40;84.70;;;;;;5043640;28;20321;-96
2023/05/19 14:13:29;;;;;;;;;;;14.40;84.70;;;;;;5024257;28;19913;-96
2023/05/19 14:15:55;;;;;;;;;;;14.40;84.70;;;;;;5021021;28;19913;-96
2023/05/19 14:18:44;;;;;;;;;;;14.40;84.80;;;;;;5009320;28;19920;-96
2023/05/19 14:21:41;;;;;;;;;;;14.30;84.70;;;;;;5040814;28;19920;-96
2023/05/19 14:24:10;;;;;;;;;;;14.40;84.90;;;;;;5024651;28;20392;-95
2023/05/19 14:26:58;;;;;;;;;;;14.40;84.90;;;;;;5026681;28;19913;-96
2023/05/19 14:29:47;;;;;;;;;;;14.40;85.00;;;;;;5032073;28;19952;-96
2023/05/19 14:32:40;;;;;;;;;;;14.40;85.00;;;;;;5019003;28;19919;-96
2023/05/19 14:35:27;;;;;;;;;;;14.30;85.00;;;;;;5021077;28;19917;-96
2023/05/19 14:38:38;;;;;;;;;;;14.30;85.00;;;;;;5039811;28;19916;-95
2023/05/19 14:41:26;;;;;;;;;;;14.40;85.10;;;;;;5015117;28;19917;-96
2023/05/19 14:47:22;;;;;;;;;;;14.40;85.10;;;;;;5043595;28;19913;-96
2023/05/19 14:49:48;;;;;;;;;;;14.40;85.20;;;;;;5035371;28;19913;-96
2023/05/19 14:52:34;;;;;;;;;;;14.70;85.40;;;;;;5026325;28;20445;-96
2023/05/19 14:55:23;;;;;;;;;;;14.40;85.20;;;;;;5047642;28;19913;-96
2023/05/19 14:57:51;;;;;;;;;;;14.40;85.30;;;;;;5028057;28;19912;-96
2023/05/19 15:00:37;;;;;;;;;;;14.40;85.20;;;;;;5033934;28;19935;-96
2023/05/19 15:03:37;;;;;;;;;;;14.30;85.20;;;;;;5053416;28;19962;-96
2023/05/19 15:06:23;;;;;;;;;;;14.40;85.30;;;;;;5030251;28;19915;-96
2023/05/19 15:09:13;;;;;;;;;;;14.40;85.40;;;;;;5043315;28;20043;-96
2023/05/19 15:12:04;;;;;;;;;;;14.40;85.50;;;;;;5036884;28;19909;-96
2023/05/19 15:15:06;;;;;;;;;;;14.40;85.50;;;;;;5059487;28;19909;-96
2023/05/19 15:18:08;;;;;;;;;;;14.40;85.60;;;;;;5040420;28;19910;-96
2023/05/19 15:20:36;;;;;;;;;;;14.30;85.50;;;;;;5055033;28;20315;-96
2023/05/19 15:23:30;;;;;;;;;;;14.30;85.40;;;;;;5016248;28;19964;-96
2023/05/19 15:26:23;;;;;;;;;;;14.30;85.50;;;;;;5057492;28;19908;-96
2023/05/19 15:28:51;;;;;;;;;;;14.40;85.70;;;;;;5053574;28;20390;-96
2023/05/19 15:31:43;;;;;;;;;;;14.40;85.70;;;;;;5034861;28;19913;-96
2023/05/19 15:34:49;;;;;;;;;;;14.30;85.70;;;;;;5060382;28;20384;-96
2023/05/19 15:37:37;;;;;;;;;;;14.40;85.80;;;;;;5052167;28;20432;-96
2023/05/19 15:40:23;;;;;;;;;;;14.30;86.50;;;;;;5046553;28;19999;-96
2023/05/19 15:43:16;;;;;;;;;;;14.30;85.80;;;;;;5071505;28;19908;-96
2023/05/19 15:46:12;;;;;;;;;;;14.30;85.80;;;;;;5070800;28;20029;-96
2023/05/19 15:48:58;;;;;;;;;;;14.40;85.80;;;;;;5063968;28;19909;-96
2023/05/19 15:51:46;;;;;;;;;;;14.40;85.90;;;;;;5049676;28;20003;-96
2023/05/19 15:54:32;;;;;;;;;;;14.30;85.80;;;;;;5073383;28;19913;-96
2023/05/19 15:57:41;;;;;;;;;;;14.30;85.90;;;;;;5061364;28;19913;-96
2023/05/19 16:00:30;;;;;;;;;;;14.40;86.00;;;;;;5049445;28;19909;-96
2023/05/19 16:03:24;;;;;;;;;;;14.30;85.90;;;;;;5054331;28;19913;-96
2023/05/19 16:06:12;;;;;;;;;;;14.70;86.20;;;;;;5047710;28;19909;-96
2023/05/19 16:09:03;;;;;;;;;;;14.30;85.90;;;;;;5065663;28;19908;-96
2023/05/19 16:12:05;;;;;;;;;;;14.30;85.90;;;;;;5062369;28;19955;-95
2023/05/19 16:14:35;;;;;;;;;;;14.30;86.00;;;;;;5073306;28;19915;-96
2023/05/19 16:17:25;;;;;;;;;;;14.30;86.00;;;;;;5054719;28;19943;-96
2023/05/19 16:20:25;;;;;;;;;;;14.30;86.20;;;;;;5036203;28;19931;-96
2023/05/19 16:23:16;;;;;;;;;;;14.30;86.20;;;;;;5051208;28;19917;-96
2023/05/19 16:26:04;;;;;;;;;;;14.30;86.10;;;;;;5037126;28;19909;-96
2023/05/19 16:28:55;;;;;;;;;;;14.30;86.10;;;;;;5044396;28;19913;-96
2023/05/19 16:31:45;;;;;;;;;;;14.40;86.20;;;;;;5048186;28;19908;-96
2023/05/19 16:34:41;;;;;;;;;;;14.30;86.10;;;;;;5052234;28;19908;-96
2023/05/19 16:37:31;;;;;;;;;;;14.30;86.10;;;;;;5052778;28;19935;-96
2023/05/19 16:40:27;;;;;;;;;;;14.30;86.20;;;;;;5048947;28;19909;-96
2023/05/19 16:43:26;;;;;;;;;;;14.30;86.30;;;;;;5061304;28;20262;-96
2023/05/19 16:46:08;;;;;;;;;;;;;;;;;;;;;
2023/05/19 16:49:04;;;;;;;;;;;14.30;86.50;;;;;;5054446;28;19916;-96
2023/05/19 16:51:57;;;;;;;;;;;14.30;86.60;;;;;;5052702;28;19932;-96
2023/05/19 16:54:46;;;;;;;;;;;14.30;87.30;;;;;;5063305;28;19909;-96
2023/05/19 16:57:42;;;;;;;;;;;14.30;86.50;;;;;;5058110;28;20023;-95
2023/05/19 17:00:45;;;;;;;;;;;14.40;86.70;;;;;;5048048;28;19908;-96
2023/05/19 17:03:49;;;;;;;;;;;14.30;86.60;;;;;;5053143;28;19909;-96
2023/05/19 17:06:54;;;;;;;;;;;14.40;86.80;;;;;;5045472;28;20277;-96
2023/05/19 17:09:44;;;;;;;;;;;14.30;86.70;;;;;;5050869;28;19924;-96
2023/05/19 17:12:36;;;;;;;;;;;14.30;86.60;;;;;;5051516;28;20389;-96
2023/05/19 17:15:27;;;;;;;;;;;14.30;86.70;;;;;;5047310;28;19943;-96
2023/05/19 17:18:18;;;;;;;;;;;14.30;86.70;;;;;;5058188;28;19983;-96
2023/05/19 17:21:21;;;;;;;;;;;14.30;86.70;;;;;;5051060;28;19959;-96
2023/05/19 17:24:06;;;;;;;;;;;14.30;86.80;;;;;;5034797;28;19921;-96
2023/05/19 17:26:54;;;;;;;;;;;14.30;86.80;;;;;;5032498;28;20250;-96
2023/05/19 17:29:40;;;;;;;;;;;14.30;86.90;;;;;;5047847;28;19962;-96
2023/05/19 17:32:36;;;;;;;;;;;14.30;87.00;;;;;;5056408;28;19909;-96
2023/05/19 17:35:40;;;;;;;;;;;14.30;87.00;;;;;;5055094;28;19916;-96
2023/05/19 17:38:14;;;;;;;;;;;14.30;87.00;;;;;;5055056;28;19919;-96
2023/05/19 17:41:08;;;;;;;;;;;14.30;87.00;;;;;;5027753;28;19913;-96
2023/05/19 17:44:08;;;;;;;;;;;14.30;87.00;;;;;;5049549;28;19936;-96
2023/05/19 17:50:03;;;;;;;;;;;14.30;87.30;;;;;;5050300;28;19909;-96
2023/05/19 17:52:53;;;;;;;;;;;14.30;87.30;;;;;;5048402;28;19948;-96
2023/05/19 17:55:40;;;;;;;;;;;14.30;87.30;;;;;;5041977;28;19917;-96
2023/05/19 17:58:28;;;;;;;;;;;14.30;87.40;;;;;;5028621;28;19919;-96
2023/05/19 18:01:24;;;;;;;;;;;;;;;;;;;;;
2023/05/19 18:04:24;;;;;;;;;;;14.30;87.40;;;;;;5057371;28;19962;-96
2023/05/19 18:07:10;;;;;;;;;;;14.20;87.30;;;;;;5048790;28;20273;-96
2023/05/19 18:10:00;;;;;;;;;;;14.30;87.40;;;;;;5028689;28;19909;-96
2023/05/19 18:12:26;;;;;;;;;;;14.20;87.40;;;;;;5033916;28;19912;-96
2023/05/19 18:14:53;;;;;;;;;;;14.30;87.50;;;;;;5017830;28;19924;-96
2023/05/19 18:17:38;;;;;;;;;;;14.20;87.50;;;;;;5011199;28;19920;-96
2023/05/19 18:20:31;;;;;;;;;;;14.30;87.60;;;;;;5053352;28;19959;-95
2023/05/19 18:23:18;;;;;;;;;;;14.20;87.50;;;;;;5047702;28;19924;-96
2023/05/19 18:26:29;;;;;;;;;;;14.20;87.60;;;;;;5046700;28;19917;-96
2023/05/19 18:29:01;;;;;;;;;;;14.20;87.60;;;;;;5047261;28;19952;-96
2023/05/19 18:31:49;;;;;;;;;;;14.20;87.60;;;;;;5030596;28;19919;-96
2023/05/19 18:34:41;;;;;;;;;;;14.10;87.70;;;;;;5044916;28;19913;-96
2023/05/19 18:37:40;;;;;;;;;;;;;;;;;;;;;
2023/05/19 18:40:40;;;;;;;;;;;14.20;87.80;;;;;;5046243;28;19917;-95
2023/05/19 18:43:28;;;;;;;;;;;14.20;88.00;;;;;;5028279;28;20365;-96
2023/05/19 18:46:14;;;;;;;;;;;14.20;87.90;;;;;;5030183;28;19913;-96
2023/05/19 18:48:40;;;;;;;;;;;14.20;87.90;;;;;;5037128;28;19913;-96
2023/05/19 18:51:29;;;;;;;;;;;14.20;88.00;;;;;;5027660;28;19913;-96
2023/05/19 18:54:16;;;;;;;;;;;14.20;88.00;;;;;;5046117;28;19917;-96
2023/05/19 18:57:03;;;;;;;;;;;14.20;88.10;;;;;;5043760;28;20361;-95
2023/05/19 18:59:52;;;;;;;;;;;14.30;88.10;;;;;;5025685;28;19992;-95
2023/05/19 19:02:38;;;;;;;;;;;14.20;88.20;;;;;;5039403;28;19916;-96
2023/05/19 19:05:27;;;;;;;;;;;14.20;88.20;;;;;;5049845;28;20462;-96
2023/05/19 19:08:33;;;;;;;;;;;14.20;88.30;;;;;;5041746;28;19909;-96
2023/05/19 19:11:21;;;;;;;;;;;14.20;88.30;;;;;;5044841;28;19916;-96
2023/05/19 19:14:09;;;;;;;;;;;14.20;88.40;;;;;;5029273;28;19909;-96
2023/05/19 19:16:58;;;;;;;;;;;14.20;88.50;;;;;;5025107;28;19913;-96
2023/05/19 19:19:44;;;;;;;;;;;14.20;88.60;;;;;;5043676;28;19909;-96
2023/05/19 19:22:22;;;;;;;;;;;14.20;88.60;;;;;;5028325;28;19912;-96
2023/05/19 19:25:17;;;;;;;;;;;14.20;88.80;;;;;;5043413;28;19974;-96
2023/05/19 19:28:06;;;;;;;;;;;14.20;88.80;;;;;;5049984;28;19909;-96
2023/05/19 19:31:17;;;;;;;;;;;14.20;88.90;;;;;;5049835;28;19916;-95
2023/05/19 19:34:07;;;;;;;;;;;14.20;88.90;;;;;;5035891;28;19916;-96
2023/05/19 19:36:56;;;;;;;;;;;14.20;89.70;;;;;;5031787;28;19912;-96
2023/05/19 19:43:19;;;;;;;;;;;14.20;89.00;;;;;;4999321;28;19949;-96
2023/05/19 19:46:25;;;;;;;;;;;14.20;89.10;;;;;;4994018;28;19910;-96
2023/05/19 19:52:36;;;;;;;;;;;14.20;89.20;;;;;;4939306;29;19926;-96
2023/05/19 19:55:24;;;;;;;;;;;14.20;89.40;;;;;;4942964;29;19954;-96
2023/05/19 19:58:23;;;;;;;;;;;14.10;89.30;;;;;;4938553;29;20014;-95
2023/05/19 20:01:32;;;;;;;;;;;;;;;;;;;;;
2023/05/19 20:04:24;;;;;;;;;;;14.30;89.40;;;;;;4942771;29;20337;-96
2023/05/19 20:07:10;;;;;;;;;;;14.10;89.30;;;;;;4936262;29;19910;-96
2023/05/19 20:10:19;;;;;;;;;;;14.20;89.40;;;;;;4935263;29;19986;-96